createdAt,value
2022-09-03T00:01:43.686Z,2.77
2022-09-03T00:04:21.374Z,2.97
2022-09-03T00:07:01.069Z,2.75
2022-09-03T00:09:42.400Z,2.80
2022-09-03T00:12:09.037Z,2.72
2022-09-03T00:14:50.089Z,2.99
2022-09-03T00:17:18.752Z,2.99
2022-09-03T00:19:58.594Z,2.80
2022-09-03T00:22:30.114Z,2.81
2022-09-03T00:25:01.115Z,2.69
2022-09-03T00:27:29.285Z,2.86
2022-09-03T00:30:03.608Z,2.99
2022-09-03T00:32:42.629Z,2.77
2022-09-03T00:35:16.932Z,3.01
2022-09-03T00:37:44.018Z,3.01
2022-09-03T00:40:19.244Z,2.94
2022-09-03T00:42:59.016Z,2.96
2022-09-03T00:45:35.378Z,2.87
2022-09-03T00:48:27.914Z,2.74
2022-09-03T00:51:01.080Z,2.85
2022-09-03T00:53:57.099Z,2.99
2022-09-03T00:56:42.426Z,2.66
2022-09-03T00:59:26.910Z,2.99
2022-09-03T01:02:02.675Z,2.87
2022-09-03T01:04:29.449Z,2.93
2022-09-03T01:07:15.911Z,2.76
2022-09-03T01:09:50.543Z,2.75
2022-09-03T01:12:17.095Z,2.78
2022-09-03T01:15:02.067Z,2.56
2022-09-03T01:17:28.890Z,2.73
2022-09-03T01:20:13.884Z,2.93
2022-09-03T01:23:07.583Z,2.77
2022-09-03T01:25:47.462Z,2.89
2022-09-03T01:28:33.491Z,2.82
2022-09-03T01:31:12.085Z,2.63
2022-09-03T01:33:42.433Z,2.77
2022-09-03T01:36:35.707Z,2.74
2022-09-03T01:39:05.926Z,2.67
2022-09-03T01:41:57.206Z,2.64
2022-09-03T01:44:45.352Z,2.72
2022-09-03T01:47:41.616Z,2.47
2022-09-03T01:50:17.471Z,2.79
2022-09-03T01:52:55.270Z,2.89
2022-09-03T01:55:46.454Z,2.60
2022-09-03T01:58:12.972Z,2.73
2022-09-03T02:00:43.745Z,2.77
2022-09-03T02:03:12.608Z,2.75
2022-09-03T02:05:39.457Z,2.78
2022-09-03T02:08:08.152Z,3.13
2022-09-03T02:10:42.037Z,2.78
2022-09-03T02:13:13.521Z,2.82
2022-09-03T02:15:43.384Z,2.79
2022-09-03T02:18:29.289Z,2.95
2022-09-03T02:20:57.421Z,2.74
2022-09-03T02:23:27.804Z,2.83
2022-09-03T02:26:00.100Z,2.90
2022-09-03T02:28:28.121Z,2.79
2022-09-03T02:30:55.136Z,2.98
2022-09-03T02:33:22.018Z,2.76
2022-09-03T02:35:48.876Z,2.74
2022-09-03T02:38:15.610Z,2.80
2022-09-03T02:40:42.344Z,2.81
2022-09-03T02:43:14.074Z,2.83
2022-09-03T02:45:46.345Z,2.86
2022-09-03T02:48:16.505Z,2.78
2022-09-03T02:50:43.939Z,2.93
2022-09-03T02:53:10.500Z,2.74
2022-09-03T02:55:37.200Z,2.86
2022-09-03T02:58:06.947Z,2.82
2022-09-03T03:00:33.611Z,2.80
2022-09-03T03:03:00.152Z,2.82
2022-09-03T03:05:30.871Z,2.66
2022-09-03T03:07:58.393Z,2.82
2022-09-03T03:10:25.459Z,2.64
2022-09-03T03:12:52.259Z,2.87
2022-09-03T03:15:19.516Z,2.97
2022-09-03T03:17:46.187Z,2.65
2022-09-03T03:20:12.792Z,2.89
2022-09-03T03:22:39.323Z,2.62
2022-09-03T03:25:06.306Z,2.67
2022-09-03T03:27:32.908Z,2.75
2022-09-03T03:29:59.449Z,2.72
2022-09-03T03:32:26.689Z,2.80
2022-09-03T03:34:53.284Z,2.86
2022-09-03T03:37:19.862Z,2.80
2022-09-03T03:39:46.528Z,2.81
2022-09-03T03:42:14.270Z,2.89
2022-09-03T03:44:42.431Z,2.86
2022-09-03T03:47:08.973Z,2.79
2022-09-03T03:49:35.530Z,2.69
2022-09-03T03:52:03.235Z,2.84
2022-09-03T03:54:29.940Z,2.86
2022-09-03T03:56:56.893Z,2.93
2022-09-03T03:59:23.513Z,2.89
2022-09-03T04:01:50.877Z,2.90
2022-09-03T04:04:17.819Z,3.01
2022-09-03T04:06:44.423Z,2.90
2022-09-03T04:09:11.089Z,2.88
2022-09-03T04:11:37.630Z,2.89
2022-09-03T04:14:04.157Z,2.99
2022-09-03T04:16:33.069Z,3.10
2022-09-03T04:19:00.039Z,2.85
2022-09-03T04:21:28.490Z,2.58
2022-09-03T04:23:55.924Z,2.81
2022-09-03T04:26:24.128Z,2.66
2022-09-03T04:28:50.717Z,2.86
2022-09-03T04:31:19.655Z,2.70
2022-09-03T04:33:46.253Z,2.87
2022-09-03T04:36:14.232Z,2.86
2022-09-03T04:38:42.721Z,2.95
2022-09-03T04:41:10.588Z,2.57
2022-09-03T04:43:37.442Z,2.64
2022-09-03T04:46:05.954Z,2.73
2022-09-03T04:48:33.267Z,2.72
2022-09-03T04:51:06.639Z,2.83
2022-09-03T04:53:34.421Z,3.26
2022-09-03T04:56:00.964Z,2.82
2022-09-03T04:58:27.491Z,3.19
2022-09-03T05:00:54.377Z,2.87
2022-09-03T05:03:22.085Z,2.77
2022-09-03T05:05:52.907Z,2.65
2022-09-03T05:08:19.498Z,2.64
2022-09-03T05:10:46.102Z,2.53
2022-09-03T05:13:12.647Z,2.82
2022-09-03T05:15:39.243Z,2.82
2022-09-03T05:18:05.774Z,2.42
2022-09-03T05:20:32.978Z,2.69
2022-09-03T05:23:03.879Z,2.66
2022-09-03T05:25:33.387Z,2.68
2022-09-03T05:28:00.115Z,2.69
2022-09-03T05:30:26.799Z,2.76
2022-09-03T05:32:53.490Z,2.74
2022-09-03T05:35:23.005Z,2.65
2022-09-03T05:37:54.519Z,2.80
2022-09-03T05:40:21.088Z,2.70
2022-09-03T05:42:47.641Z,2.59
2022-09-03T05:45:14.165Z,2.59
2022-09-03T05:47:40.720Z,2.66
2022-09-03T05:50:08.872Z,2.69
2022-09-03T05:52:36.164Z,2.58
2022-09-03T05:55:03.199Z,2.42
2022-09-03T05:57:30.901Z,2.38
2022-09-03T05:59:57.668Z,2.56
2022-09-03T06:02:24.432Z,2.54
2022-09-03T06:04:51.202Z,2.67
2022-09-03T06:07:17.803Z,2.55
2022-09-03T06:09:44.398Z,2.53
2022-09-03T06:12:11.026Z,2.56
2022-09-03T06:14:37.820Z,2.36
2022-09-03T06:17:04.379Z,2.52
2022-09-03T06:19:30.981Z,2.80
2022-09-03T06:21:57.515Z,2.72
2022-09-03T06:24:28.047Z,2.61
2022-09-03T06:26:56.685Z,2.48
2022-09-03T06:29:23.523Z,2.62
2022-09-03T06:31:51.024Z,2.61
2022-09-03T06:34:18.672Z,2.84
2022-09-03T06:36:45.750Z,2.61
2022-09-03T06:39:12.369Z,2.33
2022-09-03T06:41:40.108Z,2.78
2022-09-03T06:44:11.841Z,2.51
2022-09-03T06:46:39.777Z,2.49
2022-09-03T06:49:06.925Z,2.54
2022-09-03T06:51:33.477Z,2.76
2022-09-03T06:54:04.855Z,2.61
2022-09-03T06:56:38.813Z,2.60
2022-09-03T06:59:08.222Z,2.71
2022-09-03T07:01:36.057Z,2.63
2022-09-03T07:04:04.853Z,2.50
2022-09-03T07:06:33.252Z,2.64
2022-09-03T07:09:00.276Z,2.53
2022-09-03T07:11:29.404Z,2.44
2022-09-03T07:13:56.126Z,2.40
2022-09-03T07:16:24.095Z,2.52
2022-09-03T07:18:51.189Z,2.46
2022-09-03T07:21:22.522Z,2.49
2022-09-03T07:23:51.802Z,2.51
2022-09-03T07:26:20.679Z,2.60
2022-09-03T07:28:47.626Z,2.58
2022-09-03T07:31:28.761Z,2.54
2022-09-03T07:33:58.901Z,2.54
2022-09-03T07:36:27.551Z,2.68
2022-09-03T07:38:58.722Z,2.63
2022-09-03T07:41:29.004Z,8.13
2022-09-03T07:43:55.884Z,6.27
2022-09-03T07:46:24.212Z,4.51
2022-09-03T07:48:50.910Z,4.49
2022-09-03T07:51:18.310Z,3.14
2022-09-03T07:53:45.943Z,3.80
2022-09-03T07:56:13.213Z,9.77
2022-09-03T07:58:41.867Z,10.01
2022-09-03T08:01:11.252Z,20.53
2022-09-03T08:03:38.964Z,5.58
2022-09-03T08:06:07.554Z,8.97
2022-09-03T08:08:38.402Z,12.03
2022-09-03T08:11:12.166Z,19.33
2022-09-03T08:13:43.151Z,6.06
2022-09-03T08:16:10.864Z,10.79
2022-09-03T08:18:39.246Z,12.61
2022-09-03T08:21:07.329Z,7.83
2022-09-03T08:23:37.007Z,9.66
2022-09-03T08:26:03.885Z,6.65
2022-09-03T08:28:34.478Z,4.70
2022-09-03T08:31:12.054Z,7.72
2022-09-03T08:33:39.124Z,11.35
2022-09-03T08:36:07.316Z,6.88
2022-09-03T08:38:34.879Z,9.56
2022-09-03T08:41:05.931Z,5.98
2022-09-03T08:43:39.697Z,20.63
2022-09-03T08:46:07.097Z,20.65
2022-09-03T08:48:34.629Z,17.16
2022-09-03T08:51:04.730Z,12.68
2022-09-03T08:53:48.396Z,21.54
2022-09-03T08:56:21.455Z,8.19
2022-09-03T08:58:48.060Z,10.50
2022-09-03T09:01:33.546Z,11.61
2022-09-03T09:04:03.008Z,5.61
2022-09-03T09:06:43.357Z,6.38
2022-09-03T09:09:13.141Z,6.60
2022-09-03T09:11:47.268Z,5.73
2022-09-03T09:14:19.765Z,5.48
2022-09-03T09:17:15.977Z,5.66
2022-09-03T09:19:55.619Z,4.86
2022-09-03T09:22:34.047Z,5.31
2022-09-03T09:25:05.378Z,4.12
2022-09-03T09:27:33.046Z,5.44
2022-09-03T09:30:04.625Z,4.59
2022-09-03T09:32:34.101Z,5.34
2022-09-03T09:35:00.694Z,5.96
2022-09-03T09:37:27.549Z,3.04
2022-09-03T09:39:56.677Z,3.13
2022-09-03T09:42:23.439Z,3.40
2022-09-03T09:44:50.654Z,3.76
2022-09-03T09:47:29.696Z,3.58
2022-09-03T09:49:58.280Z,3.17
2022-09-03T09:52:28.449Z,3.75
2022-09-03T09:55:08.449Z,3.45
2022-09-03T09:57:35.800Z,2.13
2022-09-03T10:00:13.293Z,2.12
2022-09-03T10:02:47.866Z,2.12
2022-09-03T10:05:23.066Z,2.00
2022-09-03T10:08:08.817Z,1.99
2022-09-03T10:10:42.747Z,2.03
2022-09-03T10:13:09.500Z,2.04
2022-09-03T10:15:51.490Z,1.98
2022-09-03T10:18:38.092Z,1.96
2022-09-03T10:21:20.755Z,2.02
2022-09-03T10:24:04.884Z,1.96
2022-09-03T10:26:36.713Z,1.87
2022-09-03T10:29:05.813Z,2.02
2022-09-03T10:31:32.428Z,2.21
2022-09-03T10:34:02.276Z,2.45
2022-09-03T10:36:36.516Z,1.96
2022-09-03T10:39:14.348Z,2.65
2022-09-03T10:42:02.590Z,2.29
2022-09-03T10:44:35.714Z,1.90
2022-09-03T10:47:14.662Z,1.99
2022-09-03T10:49:41.808Z,2.15
2022-09-03T10:52:37.841Z,2.23
2022-09-03T10:55:07.790Z,1.87
2022-09-03T10:57:49.697Z,1.88
2022-09-03T11:00:18.962Z,1.88
2022-09-03T11:02:45.607Z,1.86
2022-09-03T11:05:20.080Z,1.82
2022-09-03T11:07:53.423Z,2.01
2022-09-03T11:10:30.934Z,1.74
2022-09-03T11:12:57.831Z,1.79
2022-09-03T11:15:33.424Z,1.82
2022-09-03T11:18:04.782Z,1.80
2022-09-03T11:20:33.194Z,1.87
2022-09-03T11:23:02.131Z,2.06
2022-09-03T11:25:33.360Z,1.74
2022-09-03T11:28:21.201Z,1.67
2022-09-03T11:30:50.646Z,1.82
2022-09-03T11:33:20.493Z,1.69
2022-09-03T11:35:47.714Z,2.05
2022-09-03T11:38:17.193Z,1.82
2022-09-03T11:40:58.388Z,1.75
2022-09-03T11:43:24.945Z,1.78
2022-09-03T11:46:05.097Z,1.78
2022-09-03T11:48:39.921Z,1.74
2022-09-03T11:51:19.070Z,1.68
2022-09-03T11:53:56.680Z,1.68
2022-09-03T11:56:25.344Z,1.49
2022-09-03T11:59:10.687Z,1.87
2022-09-03T12:01:37.898Z,1.97
2022-09-03T12:04:08.475Z,1.75
2022-09-03T12:06:38.213Z,1.84
2022-09-03T12:09:14.480Z,1.82
2022-09-03T12:11:40.984Z,1.60
2022-09-03T12:14:16.752Z,1.87
2022-09-03T12:16:46.464Z,1.98
2022-09-03T12:19:47.951Z,1.74
2022-09-03T12:22:18.508Z,1.93
2022-09-03T12:24:45.550Z,2.02
2022-09-03T12:27:17.275Z,2.35
2022-09-03T12:30:03.815Z,2.24
2022-09-03T12:32:32.537Z,1.98
2022-09-03T12:35:10.725Z,1.82
2022-09-03T12:40:29.962Z,1.83
2022-09-03T12:46:14.229Z,1.80
2022-09-03T12:48:47.361Z,1.73
2022-09-03T12:54:02.385Z,1.75
2022-09-03T12:56:33.317Z,1.66
2022-09-03T12:59:05.856Z,1.78
2022-09-03T13:01:36.522Z,1.79
2022-09-03T13:04:10.378Z,1.83
2022-09-03T13:06:52.000Z,1.76
2022-09-03T13:09:25.174Z,1.83
2022-09-03T13:11:55.944Z,1.87
2022-09-03T13:14:23.156Z,1.97
2022-09-03T13:17:07.225Z,1.92
2022-09-03T13:19:50.596Z,1.84
2022-09-03T13:22:17.104Z,1.86
2022-09-03T13:24:49.652Z,1.78
2022-09-03T13:27:28.428Z,1.88
2022-09-03T13:30:02.104Z,1.89
2022-09-03T13:32:47.192Z,1.89
2022-09-03T13:35:26.290Z,1.79
2022-09-03T13:37:59.204Z,1.73
2022-09-03T13:40:32.984Z,1.84
2022-09-03T13:43:13.514Z,1.88
2022-09-03T13:45:47.290Z,1.70
2022-09-03T13:48:37.628Z,1.92
2022-09-03T13:51:06.333Z,2.01
2022-09-03T13:53:42.231Z,2.01
2022-09-03T13:56:21.602Z,2.02
2022-09-03T13:58:58.001Z,1.99
2022-09-03T14:01:41.362Z,1.90
2022-09-03T14:04:18.158Z,1.76
2022-09-03T14:07:05.182Z,1.81
2022-09-03T14:09:39.103Z,1.81
2022-09-03T14:12:06.501Z,1.93
2022-09-03T14:14:55.089Z,1.90
2022-09-03T14:17:39.157Z,2.03
2022-09-03T14:20:11.916Z,2.00
2022-09-03T14:23:02.623Z,1.90
2022-09-03T14:25:29.942Z,2.16
2022-09-03T14:28:13.192Z,2.00
2022-09-03T14:31:02.489Z,1.80
2022-09-03T14:33:47.655Z,2.05
2022-09-03T14:36:26.869Z,2.29
2022-09-03T14:38:53.417Z,2.08
2022-09-03T14:41:34.805Z,1.89
2022-09-03T14:44:01.318Z,2.07
2022-09-03T14:46:38.015Z,2.05
2022-09-03T14:49:18.509Z,2.13
2022-09-03T14:52:07.255Z,2.19
2022-09-03T14:54:33.789Z,2.27
2022-09-03T14:57:19.260Z,2.13
2022-09-03T14:59:52.251Z,2.28
2022-09-03T15:02:34.239Z,2.31
2022-09-03T15:05:00.887Z,2.09
2022-09-03T15:07:28.136Z,2.12
2022-09-03T15:10:03.078Z,2.10
2022-09-03T15:12:40.557Z,2.16
2022-09-03T15:15:13.823Z,2.16
2022-09-03T15:17:47.928Z,2.20
2022-09-03T15:20:14.972Z,2.33
2022-09-03T15:22:58.210Z,2.21
2022-09-03T15:25:32.208Z,2.15
2022-09-03T15:28:31.070Z,2.27
2022-09-03T15:31:05.418Z,2.27
2022-09-03T15:33:58.290Z,2.18
2022-09-03T15:36:33.657Z,2.41
2022-09-03T15:39:05.714Z,2.30
2022-09-03T15:41:41.662Z,2.30
2022-09-03T15:44:19.257Z,2.12
2022-09-03T15:46:52.422Z,2.13
2022-09-03T15:49:26.954Z,2.25
2022-09-03T15:52:06.497Z,2.18
2022-09-03T15:54:47.302Z,2.28
2022-09-03T15:57:21.972Z,2.29
2022-09-03T16:00:08.843Z,2.25
2022-09-03T16:02:39.760Z,2.31
2022-09-03T16:05:28.903Z,2.28
2022-09-03T16:07:58.637Z,2.41
2022-09-03T16:10:39.184Z,2.39
2022-09-03T16:13:18.487Z,2.41
2022-09-03T16:15:59.117Z,2.47
2022-09-03T16:18:34.221Z,2.28
2022-09-03T16:21:00.837Z,2.31
2022-09-03T16:23:36.194Z,2.27
2022-09-03T16:26:21.694Z,2.46
2022-09-03T16:28:53.218Z,2.74
2022-09-03T16:31:21.299Z,2.50
2022-09-03T16:34:06.178Z,2.91
2022-09-03T16:36:40.883Z,2.61
2022-09-03T16:39:13.461Z,2.34
2022-09-03T16:41:58.678Z,2.48
2022-09-03T16:44:39.616Z,18.87
2022-09-03T16:47:28.397Z,20.73
2022-09-03T16:49:58.053Z,5.77
2022-09-03T16:52:54.047Z,4.49
2022-09-03T16:55:23.613Z,6.43
2022-09-03T16:57:50.286Z,4.50
2022-09-03T17:00:20.773Z,4.53
2022-09-03T17:02:50.332Z,10.38
2022-09-03T17:05:20.289Z,9.26
2022-09-03T17:08:06.986Z,11.95
2022-09-03T17:10:33.620Z,5.87
2022-09-03T17:13:19.956Z,6.64
2022-09-03T17:16:04.348Z,4.85
2022-09-03T17:18:42.678Z,3.39
2022-09-03T17:21:19.855Z,2.98
2022-09-03T17:23:46.665Z,2.55
2022-09-03T17:26:16.820Z,2.60
2022-09-03T17:28:43.330Z,3.06
2022-09-03T17:31:22.406Z,2.91
2022-09-03T17:33:48.981Z,2.61
2022-09-03T17:36:21.325Z,2.31
2022-09-03T17:39:16.845Z,2.24
2022-09-03T17:41:53.202Z,2.25
2022-09-03T17:44:23.284Z,2.13
2022-09-03T17:46:52.969Z,2.14
2022-09-03T17:49:29.389Z,2.43
2022-09-03T17:52:07.193Z,2.58
2022-09-03T17:54:33.917Z,2.72
2022-09-03T17:57:03.550Z,3.45
2022-09-03T17:59:30.299Z,5.07
2022-09-03T18:02:15.696Z,4.93
2022-09-03T18:04:47.048Z,9.57
2022-09-03T18:07:16.790Z,9.94
2022-09-03T18:09:54.044Z,9.18
2022-09-03T18:12:43.997Z,8.93
2022-09-03T18:15:26.803Z,6.90
2022-09-03T18:17:58.228Z,4.62
2022-09-03T18:20:49.624Z,3.64
2022-09-03T18:24:07.886Z,3.48
2022-09-03T18:26:59.023Z,3.26
2022-09-03T18:30:17.078Z,3.23
2022-09-03T18:33:02.638Z,2.78
2022-09-03T18:35:49.433Z,3.00
2022-09-03T18:38:42.292Z,2.78
2022-09-03T18:41:39.471Z,3.15
2022-09-03T18:44:47.243Z,2.55
2022-09-03T18:48:09.094Z,2.65
2022-09-03T18:50:56.491Z,2.80
2022-09-03T18:53:53.570Z,3.20
2022-09-03T18:56:38.644Z,3.13
2022-09-03T18:59:33.033Z,2.86
2022-09-03T19:02:24.509Z,2.88
2022-09-03T19:05:28.569Z,3.26
2022-09-03T19:08:19.993Z,3.17
2022-09-03T19:11:05.059Z,3.21
2022-09-03T19:13:53.107Z,3.28
2022-09-03T19:16:38.164Z,3.31
2022-09-03T19:19:23.246Z,3.28
2022-09-03T19:22:12.727Z,3.36
2022-09-03T19:24:57.708Z,3.52
2022-09-03T19:28:03.420Z,3.48
2022-09-03T19:30:58.825Z,3.45
2022-09-03T19:33:59.288Z,3.50
2022-09-03T19:36:47.589Z,3.37
2022-09-03T19:39:35.872Z,3.08
2022-09-03T19:42:29.609Z,3.25
2022-09-03T19:45:37.399Z,3.18
2022-09-03T19:48:47.066Z,3.53
2022-09-03T19:51:37.541Z,4.61
2022-09-03T19:54:23.638Z,6.86
2022-09-03T19:57:10.154Z,8.62
2022-09-03T19:59:58.742Z,14.29
2022-09-03T20:02:44.386Z,13.10
2022-09-03T20:05:35.304Z,16.42
2022-09-03T20:08:20.882Z,14.56
2022-09-03T20:10:50.729Z,22.07
2022-09-03T20:13:19.889Z,25.95
2022-09-03T20:15:59.190Z,31.65
2022-09-03T20:18:43.482Z,35.68
2022-09-03T20:21:23.552Z,33.50
2022-09-03T20:23:53.003Z,23.84
2022-09-03T20:26:28.814Z,18.17
2022-09-03T20:29:01.301Z,13.07
2022-09-03T20:31:40.373Z,8.53
2022-09-03T20:34:22.407Z,6.24
2022-09-03T20:36:55.625Z,5.12
2022-09-03T20:39:31.507Z,4.44
2022-09-03T20:42:00.919Z,4.66
2022-09-03T20:44:27.508Z,4.16
2022-09-03T20:46:54.057Z,3.98
2022-09-03T20:49:38.019Z,4.08
2022-09-03T20:52:09.609Z,4.36
2022-09-03T20:54:36.426Z,4.26
2022-09-03T20:57:14.588Z,4.36
2022-09-03T21:00:05.158Z,4.54
2022-09-03T21:02:41.264Z,4.72
2022-09-03T21:05:07.972Z,4.73
2022-09-03T21:07:46.663Z,4.66
2022-09-03T21:10:22.643Z,4.36
2022-09-03T21:13:01.466Z,3.88
2022-09-03T21:15:46.966Z,4.26
2022-09-03T21:18:13.544Z,4.33
2022-09-03T21:20:46.866Z,4.44
2022-09-03T21:23:31.835Z,4.76
2022-09-03T21:26:18.729Z,4.49
2022-09-03T21:28:50.679Z,4.28
2022-09-03T21:31:25.572Z,4.25
2022-09-03T21:33:56.454Z,4.10
2022-09-03T21:36:23.900Z,3.97
2022-09-03T21:38:59.558Z,4.27
2022-09-03T21:41:30.697Z,4.30
2022-09-03T21:44:02.178Z,4.37
2022-09-03T21:46:34.736Z,4.47
2022-09-03T21:49:05.886Z,4.26
2022-09-03T21:51:32.442Z,4.27
2022-09-03T21:54:06.822Z,4.16
2022-09-03T21:56:39.188Z,4.50
2022-09-03T21:59:13.461Z,4.73
2022-09-03T22:01:40.024Z,4.45
2022-09-03T22:04:06.786Z,4.12
2022-09-03T22:06:36.456Z,4.36
2022-09-03T22:09:03.455Z,4.48
2022-09-03T22:11:36.932Z,4.55
2022-09-03T22:14:09.722Z,4.83
2022-09-03T22:16:48.530Z,4.65
2022-09-03T22:19:15.579Z,4.67
2022-09-03T22:21:59.673Z,4.61
2022-09-03T22:24:26.773Z,4.60
2022-09-03T22:26:53.254Z,4.92
2022-09-03T22:29:35.327Z,4.81
2022-09-03T22:32:24.847Z,4.99
2022-09-03T22:34:51.719Z,4.88
2022-09-03T22:37:23.405Z,4.74
2022-09-03T22:39:50.096Z,4.92
2022-09-03T22:42:40.095Z,4.99
2022-09-03T22:45:09.818Z,4.99
2022-09-03T22:47:39.105Z,4.87
2022-09-03T22:50:24.833Z,4.72
2022-09-03T22:53:04.367Z,5.03
2022-09-03T22:55:31.101Z,4.79
2022-09-03T22:58:01.949Z,5.10
2022-09-03T23:00:31.135Z,5.45
2022-09-03T23:03:03.500Z,5.30
2022-09-03T23:05:35.542Z,5.20
2022-09-03T23:08:03.279Z,5.31
2022-09-03T23:10:34.090Z,5.03
2022-09-03T23:13:03.745Z,5.39
2022-09-03T23:15:33.095Z,6.06
2022-09-03T23:18:09.430Z,5.85
2022-09-03T23:20:39.865Z,5.77
2022-09-03T23:23:28.143Z,5.52
2022-09-03T23:26:10.115Z,5.43
2022-09-03T23:28:37.864Z,5.60
2022-09-03T23:31:18.277Z,5.86
2022-09-03T23:33:46.747Z,5.95
2022-09-03T23:36:37.476Z,6.13
2022-09-03T23:39:28.857Z,6.27
2022-09-03T23:42:07.704Z,6.21
2022-09-03T23:44:48.914Z,6.33
2022-09-03T23:47:33.028Z,5.67
2022-09-03T23:50:05.545Z,5.81
2022-09-03T23:52:41.379Z,5.92
2022-09-03T23:55:28.311Z,6.18
2022-09-03T23:58:08.578Z,5.73
